Port O' Connor, Texas
Current Conditions -  °F | °C
As of 7:20 AM on Thursday 30 Oct 2014 (Local Time) from KRKP Reporting Station
Haze Haze  
Wind Chill: 71°   Ceiling: Unl
Heat Index: 71°   Visibility: 5mi
Dew Point: 69°   Wind: 7mph
Humidity: 93%   Direction: 40°NE
Pressure: 30.07"   Gusts: NA
Location:  28.2231°N, 96.6507°W
Report Text: KRKP 301220Z AUTO 04006KT 5SM BR SCT004 22/21 A3007 RMK AO2 T02170206
Loading
Personal Weather Stations






























Interactive Weather Map
Tropical Storm Tracking
New forecast layout! Learn more

10-Day Weather Forecast

Advertisements
Track Severe Weather on mobile